Blue Oak Ranch Reserve, California Weather observations

Data are for 10 minute period ending at time listed.
 Day   Time   Solar   Ave.   Ave.  Ave.  Vector  Max.   Baro.   Total    
  of    of     Rad.   Air    Rel.  Wind   Wind   Wind  Press.  Precip.   
Year   Day            Temp.  Hum.  Speed  Dir.   Gust                    
2026   (PST)  Kw/m2    F      %     mph   deg.    mph    mb.     in.     
-------------------------------------------------------------------------
 248    1:20   0.00   43.5    74    1.4   283     3.1   949.1    0.00 
 248    1:30   0.00   44.1    73    0.3   302     2.4   949.1    0.00 
 248    1:40   0.00   43.9    74    0.0   309     0.7   949.0    0.00 
 248    1:50   0.00   44.4    72    1.1   284     3.3   948.9    0.00 
 248    2:00   0.00   44.6    72    0.7   279     2.5   948.9    0.00 
 248    2:10   0.00   44.3    73    0.1   273     1.3   948.9    0.00 
 248    2:20   0.00   44.6    73    0.2   273     1.4   948.9    0.00 
 248    2:30   0.00   44.5    73    0.1    31     0.9   948.9    0.00 
 248    2:40   0.00   44.7    72    0.6   282     2.0   948.8    0.00 
 248    2:50   0.00   44.9    71    0.7   295     2.1   948.8    0.00 
 248    3:00   0.00   45.0    72    0.7   295     1.8   948.8    0.00 
 248    3:10   0.00   44.8    73    0.6   281     1.9   948.7    0.00 
 248    3:20   0.00   44.5    74    1.5   280     2.1   948.6    0.00 
 248    3:30   0.00   44.8    72    0.7   278     3.1   948.5    0.00 
 248    3:40   0.00   45.2    71    1.0   299     2.6   948.5    0.00 
 248    3:50   0.00   45.0    72    0.4   291     2.2   948.5    0.00 
 248    4:00   0.00   45.0    70    1.6   279     3.0   948.5    0.00 
 248    4:10   0.00   45.2    70    1.3   282     2.6   948.4    0.00 
 248    4:20   0.00   44.9    69    1.1    80     2.3   948.5    0.00 
 248    4:30   0.00   45.3    67    1.3   320     2.3   948.5    0.00 
 248    4:40   0.00   45.1    65    0.0   339     0.6   948.5    0.00 
 248    4:50   0.00   45.1    64    0.1   112     0.8   948.5    0.00 
 248    5:00   0.00   45.4    65    0.2    10     1.3   948.4    0.00 
 248    5:10   0.00   45.0    66    1.3   278     3.0   948.4    0.00 
 248    5:20   0.00   44.5    66    1.5    50     2.5   948.5    0.00 
 248    5:30   0.00   44.6    64    0.7   317     1.7   948.4    0.00 
 248    5:40   0.00   44.7    65    0.4   275     1.5   948.4    0.00 
 248    5:50   0.01   44.7    63    0.0     0     0.0   948.4    0.00 
 248    6:00   0.01   45.1    60    0.0     0     0.0   948.5    0.00 
 248    6:10   0.03   45.9    58    0.0     0     0.0   948.5    0.00 
 248    6:20   0.04   47.0    58    0.0     0     0.0   948.6    0.00 
 248    6:30   0.06   48.5    58    0.0     0     0.0   948.6    0.00 
 248    6:40   0.14   50.2    55    0.0     0     0.0   948.7    0.00 
 248    6:50   0.22   54.6    44    0.0     0     0.0   948.6    0.00 
 248    7:00   0.25   59.1    39    0.4   318     2.0   948.7    0.00 
 248    7:10   0.28   60.4    33    1.1   146     2.8   948.8    0.00 
 248    7:20   0.30   65.0    26    0.1   109     1.1   948.9    0.00 
 248    7:30   0.32   66.9    26    0.3   152     1.2   948.9    0.00 
 248    7:40   0.35   66.9    26    1.1   157     2.4   949.0    0.00 
 248    7:50   0.40   66.4    25    1.1   150     2.5   949.0    0.00 
 248    8:00   0.45   68.1    24    1.0   270     4.8   949.1    0.00 
 248    8:10   0.51   68.8    29    4.1   261     6.6   949.1    0.00 
 248    8:20   0.34   68.7    26    3.7   253     6.1   949.2    0.00 
 248    8:30   0.24   65.0    28    4.0   231     5.6   949.2    0.00 
 248    8:40   0.21   63.5    32    3.2   232     5.8   949.2    0.00 
 248    8:50   0.43   63.6    33    3.4   254     5.3   949.2    0.00 
 248    9:00   0.65   67.2    26    3.3   267     6.7   949.3    0.00 
 248    9:10   0.52   69.1    22    3.6   248     6.4   949.4    0.00 
 248    9:20   0.56   68.0    27    1.6   233     3.9   949.4    0.00 
 248    9:30   0.68   69.0    23    2.0   195     6.1   949.4    0.00 
 248    9:40   0.69   69.5    23    1.6   154     6.6   949.4    0.00 
 248    9:50   0.74   71.1    26    4.6   240     9.0   949.4    0.00 
 248   10:00   0.76   71.9    27    5.8   261     8.8   949.4    0.00 
 248   10:10   0.78   72.6    30    5.0   245     8.6   949.4    0.00 
 248   10:20   0.79   71.9    32    6.5   259    11.6   949.6    0.00 
 248   10:30   0.84   71.9    32    7.7   260    13.3   949.7    0.00 
 248   10:40   0.88   70.6    32    5.8   247    11.5   949.7    0.00 
 248   10:50   0.91   71.9    29    5.7   254    10.4   949.7    0.00 
 248   11:00   0.97   72.1    28    6.0   254    11.3   949.7    0.00 
 248   11:10   0.93   72.4    30    5.4   242    10.4   949.7    0.00 
 248   11:20   0.89   72.6    29    6.4   261    11.0   949.6    0.00 
 248   11:30   0.90   73.3    28    6.0   255    10.2   949.5    0.00 
 248   11:40   0.90   73.6    26    6.2   251    10.4   949.5    0.00 
 248   11:50   0.90   74.0    25    6.1   260    11.6   949.5    0.00 
 248   12:00   0.91   74.1    26    6.5   256    13.2   949.4    0.00 
 248   12:10   0.91   74.2    25    7.0   251    11.5   949.4    0.00 
 248   12:20   0.91   74.0    24    7.0   258    11.6   949.4    0.00 
 248   12:30   0.91   74.5    25    6.8   249    13.4   949.3    0.00 
 248   12:40   0.92   74.4    27    6.5   244    11.6   949.3    0.00 
 248   12:50   0.90   75.9    26    6.6   260    11.4   949.3    0.00 
 248   13:00   0.94   75.1    27    7.3   241    12.7   949.3    0.00 
 248   13:10   0.84   74.5    27    8.1   244    13.0   949.3    0.00 
 248   13:20   0.51   75.5    27    5.0   271    10.4   949.2    0.00 
 248   13:30   0.44   75.1    30    7.3   260    14.2   949.2    0.00 
 248   13:40   0.42   74.0    32    6.5   278    11.7   949.2    0.00 
 248   13:50   0.54   74.3    32    6.6   257    11.2   949.2    0.00 
 248   14:00   0.43   73.7    32    6.7   235    11.3   949.1    0.00 
 248   14:10   0.57   73.7    33    6.6   254    11.7   949.0    0.00 
 248   14:20   0.67   73.9    33    5.7   239    12.6   949.0    0.00 
 248   14:30   0.77   74.9    34    7.8   242    14.8   949.0    0.00 
 248   14:40   0.72   74.0    36    7.9   243    13.9   948.9    0.00 
 248   14:50   0.69   75.2    35    6.1   252    14.2   948.9    0.00 
 248   15:00   0.66   74.3    37    7.1   230    15.5   948.8    0.00 
 248   15:10   0.64   74.5    36    5.9   266    11.4   948.7    0.00 
 248   15:20   0.61   75.1    36    8.0   269    14.8   948.6    0.00 
 248   15:30   0.58   75.2    36    9.4   274    14.4   948.5    0.00 
 248   15:40   0.55   75.1    35    7.0   276    12.0   948.6    0.00 
 248   15:50   0.52   74.9    35    8.3   281    13.9   948.6    0.00 
 248   16:00   0.49   74.4    35    8.1   286    12.4   948.5    0.00 
 248   16:10   0.45   73.8    36    8.1   282    12.1   948.5    0.00 
 248   16:20   0.41   73.4    37    6.3   283    13.3   948.5    0.00 
 248   16:30   0.38   72.8    38    8.1   278    12.6   948.5    0.00 
 248   16:40   0.35   72.6    37    9.1   281    12.4   948.6    0.00 
 248   16:50   0.31   71.8    36    8.0   283    14.5   948.6    0.00 
 248   17:00   0.28   71.0    36    8.0   277    13.0   948.6    0.00 
 248   17:10   0.24   70.1    38    7.8   285    13.2   948.6    0.00 
 248   17:20   0.21   69.4    38    7.4   283    11.5   948.7    0.00 
 248   17:30   0.17   69.3    38    5.6   275     8.9   948.7    0.00 
 248   17:40   0.14   68.8    38    6.7   279     9.2   948.7    0.00 
 248   17:50   0.10   67.9    39    5.7   280     8.3   948.7    0.00 
 248   18:00   0.04   66.5    40    6.5   284    10.2   948.6    0.00 
 248   18:10   0.02   65.0    42    6.1   296     9.2   948.5    0.00 
 248   18:20   0.01   64.0    41    5.9   304     8.1   948.5    0.00 
 248   18:30   0.01   63.2    41    5.7   304     9.7   948.5    0.00 
 248   18:40   0.01   62.9    40    4.9   318     8.2   948.6    0.00 
 248   18:50   0.00   62.3    40    4.3   308     8.0   948.6    0.00 
 248   19:00   0.00   61.5    41    3.5   321     6.2   948.6    0.00 
 248   19:10   0.00   61.0    42    1.2   323     3.4   948.7    0.00 
 248   19:20   0.00   59.6    44    0.9   199     2.6   948.7    0.00 
 248   19:30   0.00   58.5    45    1.2     5     2.2   948.8    0.00 
 248   19:40   0.00   57.9    46    0.2    37     1.5   949.0    0.00 
 248   19:50   0.00   58.0    47    0.3   271     1.5   949.1    0.00 
 248   20:00   0.00   58.3    47    0.1   279     1.0   949.1    0.00 
 248   20:10   0.00   58.3    47    0.7   281     1.5   949.2    0.00 
 248   20:20   0.00   58.3    47    0.5   334     1.5   949.3    0.00 
 248   20:30   0.00   58.5    46    0.8   298     2.6   949.4    0.00 
 248   20:40   0.00   58.7    49    2.3   273     4.2   949.5    0.00 
 248   20:50   0.00   58.5    48    1.1   274     2.2   949.6    0.00 
 248   21:00   0.00   58.2    55    1.6   256     3.5   949.6    0.00 
 248   21:10   0.00   57.5    52    0.1   311     1.0   949.6    0.00 
 248   21:20   0.00   56.8    56    0.2   312     1.0   949.6    0.00 
 248   21:30   0.00   55.7    53    0.1    47     1.3   949.5    0.00 
 248   21:40   0.00   54.9    53    0.0    64     0.4   949.5    0.00 
 248   21:50   0.00   54.2    54    0.0     0     0.0   949.5    0.00 
 248   22:00   0.00   53.2    56    0.1   216     0.9   949.4    0.00 
 248   22:10   0.00   52.6    57    0.1   216     0.9   949.3    0.00 
 248   22:20   0.00   52.0    59    0.1     6     1.1   949.3    0.00 
 248   22:30   0.00   51.4    60    0.6    31     1.3   949.2    0.00 
 248   22:40   0.00   50.8    61    0.6    55     1.2   949.1    0.00 
 248   22:50   0.00   50.1    63    0.6   279     1.8   949.2    0.00 
 248   23:00   0.00   49.8    64    0.1   270     0.9   949.2    0.00 
 248   23:10   0.00   49.5    65    0.0     0     0.0   949.2    0.00 
 248   23:20   0.00   49.2    65    0.0   297     0.5   949.1    0.00 
 248   23:30   0.00   49.0    65    0.0     0     0.0   949.1    0.00 
 248   23:40   0.00   49.1    65    0.7   286     2.4   949.2    0.00 
 248   23:50   0.00   48.8    65    0.2   277     1.5   949.2    0.00 
 249    0:00   0.00   48.8    65    0.1   274     1.3   949.2    0.00 
 249    0:10   0.00   48.6    65    0.0   274     0.4   949.2    0.00 
 249    0:20   0.00   48.4    64    0.0     0     0.0   949.1    0.00 
 249    0:30   0.00   48.3    64    0.1   273     1.0   949.0    0.00 
 249    0:40   0.00   48.0    64    0.3    37     1.3   949.0    0.00 
 249    0:50   0.00   48.3    62    0.0   266     1.0   949.0    0.00 
 249    1:00   0.00   48.3    63    0.4   277     1.8   949.0    0.00 
 249    1:10   0.00   47.9    63    0.3    53     1.2   949.0    0.00 

Return to Blue Oak Ranch Reserve graphs page.


Western Regional Climate Center,wrcc@dri.edu